createdAt,value
2022-08-18T00:02:01.187Z,17.88
2022-08-18T00:04:35.424Z,17.88
2022-08-18T00:07:02.884Z,17.83
2022-08-18T00:09:32.519Z,17.80
2022-08-18T00:12:03.129Z,17.69
2022-08-18T00:14:30.210Z,17.59
2022-08-18T00:16:57.065Z,17.38
2022-08-18T00:19:45.368Z,17.37
2022-08-18T00:22:15.012Z,17.35
2022-08-18T00:24:48.848Z,17.32
2022-08-18T00:27:23.394Z,17.26
2022-08-18T00:29:52.678Z,17.25
2022-08-18T00:32:26.807Z,17.23
2022-08-18T00:34:54.614Z,17.21
2022-08-18T00:37:22.988Z,17.24
2022-08-18T00:39:53.824Z,17.17
2022-08-18T00:42:30.812Z,17.21
2022-08-18T00:45:03.588Z,17.18
2022-08-18T00:47:41.459Z,17.08
2022-08-18T00:50:49.504Z,17.10
2022-08-18T00:53:45.720Z,17.09
2022-08-18T00:56:18.817Z,17.13
2022-08-18T00:58:54.675Z,17.14
2022-08-18T01:01:23.870Z,17.15
2022-08-18T01:03:56.587Z,17.15
2022-08-18T01:06:29.029Z,17.13
2022-08-18T01:08:56.238Z,17.13
2022-08-18T01:11:22.864Z,17.15
2022-08-18T01:13:49.683Z,17.15
2022-08-18T01:16:40.872Z,17.15
2022-08-18T01:19:44.784Z,16.93
2022-08-18T01:22:19.219Z,16.98
2022-08-18T01:25:04.454Z,16.91
2022-08-18T01:27:32.166Z,16.89
2022-08-18T01:30:10.469Z,16.96
2022-08-18T01:32:39.512Z,16.92
2022-08-18T01:35:10.704Z,16.97
2022-08-18T01:37:37.772Z,16.99
2022-08-18T01:41:21.187Z,16.93
2022-08-18T01:42:54.086Z,16.92
2022-08-18T01:45:20.802Z,16.91
2022-08-18T01:47:48.711Z,16.93
2022-08-18T01:50:17.542Z,16.92
2022-08-18T01:52:44.361Z,16.85
2022-08-18T01:55:11.292Z,16.79
2022-08-18T01:57:43.108Z,16.83
2022-08-18T02:00:17.192Z,16.83
2022-08-18T02:02:44.140Z,16.84
2022-08-18T02:05:16.269Z,16.85
2022-08-18T02:07:42.882Z,16.85
2022-08-18T02:10:12.476Z,16.87
2022-08-18T02:12:43.506Z,16.87
2022-08-18T02:15:11.643Z,16.89
2022-08-18T02:17:40.414Z,16.91
2022-08-18T02:20:09.009Z,16.92
2022-08-18T02:22:36.672Z,16.89
2022-08-18T02:25:04.098Z,16.90
2022-08-18T02:27:35.773Z,16.91
2022-08-18T02:30:05.636Z,16.92
2022-08-18T02:32:33.239Z,16.92
2022-08-18T02:35:00.631Z,16.91
2022-08-18T02:37:27.413Z,16.91
2022-08-18T02:39:54.069Z,16.88
2022-08-18T02:42:21.734Z,16.86
2022-08-18T02:44:48.559Z,16.88
2022-08-18T02:47:15.354Z,16.89
2022-08-18T02:49:42.011Z,16.88
2022-08-18T02:52:09.345Z,16.84
2022-08-18T02:54:36.678Z,16.82
2022-08-18T02:57:10.960Z,16.80
2022-08-18T02:59:40.207Z,16.79
2022-08-18T03:02:09.534Z,16.75
2022-08-18T03:04:36.670Z,16.77
2022-08-18T03:07:06.207Z,16.82
2022-08-18T03:09:34.710Z,16.83
2022-08-18T03:12:02.013Z,16.83
2022-08-18T03:14:29.652Z,16.81
2022-08-18T03:16:56.724Z,16.76
2022-08-18T03:19:25.601Z,16.78
2022-08-18T03:21:52.857Z,16.76
2022-08-18T03:24:22.882Z,16.67
2022-08-18T03:26:52.191Z,16.66
2022-08-18T03:29:19.897Z,16.61
2022-08-18T03:31:49.020Z,16.59
2022-08-18T03:34:19.991Z,16.61
2022-08-18T03:36:47.822Z,16.64
2022-08-18T03:39:14.829Z,16.67
2022-08-18T03:41:58.798Z,16.64
2022-08-18T03:44:30.833Z,16.59
2022-08-18T03:46:58.418Z,16.56
2022-08-18T03:49:26.113Z,16.54
2022-08-18T03:51:52.813Z,16.45
2022-08-18T03:54:19.579Z,16.45
2022-08-18T03:56:47.707Z,16.46
2022-08-18T03:59:19.267Z,16.40
2022-08-18T04:01:48.805Z,16.36
2022-08-18T04:04:19.309Z,16.36
2022-08-18T04:07:00.824Z,16.40
2022-08-18T04:09:30.985Z,16.38
2022-08-18T04:11:59.217Z,16.33
2022-08-18T04:14:31.985Z,16.35
2022-08-18T04:16:59.385Z,16.41
2022-08-18T04:19:27.825Z,16.40
2022-08-18T04:21:57.622Z,16.36
2022-08-18T04:24:28.233Z,16.36
2022-08-18T04:27:00.281Z,16.32
2022-08-18T04:29:27.264Z,16.31
2022-08-18T04:31:54.340Z,16.26
2022-08-18T04:34:22.913Z,16.28
2022-08-18T04:36:54.414Z,16.27
2022-08-18T04:39:22.296Z,16.29
2022-08-18T04:41:50.150Z,16.29
2022-08-18T04:44:18.249Z,16.29
2022-08-18T04:46:51.993Z,16.29
2022-08-18T04:49:21.039Z,16.30
2022-08-18T04:52:22.662Z,16.28
2022-08-18T04:54:57.523Z,16.27
2022-08-18T04:57:25.249Z,16.31
2022-08-18T04:59:54.092Z,16.33
2022-08-18T05:02:24.344Z,16.34
2022-08-18T05:04:51.474Z,16.37
2022-08-18T05:07:22.817Z,16.39
2022-08-18T05:09:49.844Z,16.39
2022-08-18T05:12:16.900Z,16.40
2022-08-18T05:14:47.842Z,16.40
2022-08-18T05:17:16.409Z,16.42
2022-08-18T05:19:49.842Z,16.44
2022-08-18T05:22:19.706Z,16.44
2022-08-18T05:24:57.457Z,16.46
2022-08-18T05:27:26.760Z,16.50
2022-08-18T05:29:55.817Z,16.54
2022-08-18T05:32:37.077Z,16.57
2022-08-18T05:35:18.399Z,16.57
2022-08-18T05:38:22.709Z,16.61
2022-08-18T05:41:07.280Z,16.58
2022-08-18T05:43:35.251Z,16.62
2022-08-18T05:46:09.857Z,16.62
2022-08-18T05:48:42.690Z,16.65
2022-08-18T05:51:23.475Z,16.61
2022-08-18T05:54:11.056Z,16.62
2022-08-18T05:56:49.264Z,16.62
2022-08-18T05:59:32.751Z,16.67
2022-08-18T06:02:10.776Z,16.66
2022-08-18T06:04:41.701Z,16.69
2022-08-18T06:07:13.661Z,16.69
2022-08-18T06:09:53.220Z,16.71
2022-08-18T06:12:47.098Z,16.73
2022-08-18T06:15:46.189Z,16.70
2022-08-18T06:18:25.433Z,16.70
2022-08-18T06:21:20.067Z,16.73
2022-08-18T06:23:49.616Z,16.79
2022-08-18T06:26:34.529Z,16.58
2022-08-18T06:29:25.140Z,16.58
2022-08-18T06:32:20.961Z,16.58
2022-08-18T06:35:13.539Z,16.60
2022-08-18T06:38:22.420Z,16.63
2022-08-18T06:40:50.294Z,16.68
2022-08-18T06:43:17.414Z,16.71
2022-08-18T06:45:51.937Z,16.74
2022-08-18T06:48:40.385Z,16.73
2022-08-18T06:51:08.763Z,16.76
2022-08-18T06:53:59.194Z,16.79
2022-08-18T06:56:41.057Z,16.80
2022-08-18T06:59:33.527Z,16.79
2022-08-18T07:02:24.273Z,16.67
2022-08-18T07:05:08.137Z,16.67
2022-08-18T07:07:39.579Z,16.70
2022-08-18T07:10:35.193Z,16.78
2022-08-18T07:13:26.645Z,16.76
2022-08-18T07:15:56.641Z,16.81
2022-08-18T07:18:29.019Z,16.89
2022-08-18T07:20:59.044Z,16.96
2022-08-18T07:23:38.940Z,17.01
2022-08-18T07:26:10.743Z,17.07
2022-08-18T07:28:44.496Z,17.11
2022-08-18T07:31:20.161Z,17.13
2022-08-18T07:33:56.993Z,17.05
2022-08-18T07:36:29.527Z,16.90
2022-08-18T07:39:06.174Z,16.99
2022-08-18T07:41:49.324Z,17.07
2022-08-18T07:44:33.906Z,17.16
2022-08-18T07:47:05.037Z,17.24
2022-08-18T07:49:36.572Z,17.22
2022-08-18T07:52:36.252Z,17.26
2022-08-18T07:55:33.277Z,17.28
2022-08-18T07:58:23.181Z,17.32
2022-08-18T08:01:10.400Z,17.29
2022-08-18T08:03:58.871Z,17.35
2022-08-18T08:06:31.551Z,17.34
2022-08-18T08:09:20.912Z,17.34
2022-08-18T08:11:56.525Z,17.20
2022-08-18T08:14:36.191Z,17.26
2022-08-18T08:17:02.742Z,17.35
2022-08-18T08:20:03.035Z,17.35
2022-08-18T08:22:38.705Z,17.41
2022-08-18T08:25:22.729Z,17.49
2022-08-18T08:28:09.870Z,17.50
2022-08-18T08:30:46.710Z,17.55
2022-08-18T08:33:24.969Z,17.55
2022-08-18T08:35:58.906Z,17.56
2022-08-18T08:38:42.752Z,17.63
2022-08-18T08:41:32.951Z,17.61
2022-08-18T08:44:18.720Z,17.58
2022-08-18T08:47:00.415Z,17.66
2022-08-18T08:49:39.902Z,17.61
2022-08-18T08:52:24.309Z,17.55
2022-08-18T08:54:58.740Z,17.54
2022-08-18T08:57:28.249Z,17.09
2022-08-18T08:59:58.625Z,17.18
2022-08-18T09:02:48.371Z,17.32
2022-08-18T09:05:23.920Z,17.46
2022-08-18T09:08:07.160Z,17.61
2022-08-18T09:11:05.270Z,17.71
2022-08-18T09:13:55.950Z,17.74
2022-08-18T09:16:27.826Z,17.76
2022-08-18T09:19:14.003Z,17.84
2022-08-18T09:21:58.876Z,17.88
2022-08-18T09:24:32.365Z,17.87
2022-08-18T09:27:23.560Z,17.82
2022-08-18T09:29:50.186Z,17.86
2022-08-18T09:32:20.131Z,17.93
2022-08-18T09:35:11.563Z,18.07
2022-08-18T09:38:13.169Z,18.17
2022-08-18T09:41:11.243Z,18.19
2022-08-18T09:44:21.351Z,18.28
2022-08-18T09:46:55.850Z,18.27
2022-08-18T09:49:22.619Z,18.32
2022-08-18T09:52:00.792Z,18.35
2022-08-18T09:54:32.365Z,18.34
2022-08-18T09:57:24.551Z,18.26
2022-08-18T10:00:01.772Z,18.22
2022-08-18T10:02:37.440Z,18.26
2022-08-18T10:05:16.885Z,18.34
2022-08-18T10:08:21.340Z,18.40
2022-08-18T10:11:09.240Z,18.46
2022-08-18T10:13:51.037Z,18.54
2022-08-18T10:17:15.948Z,18.67
2022-08-18T10:19:50.405Z,18.71
2022-08-18T10:22:40.005Z,18.74
2022-08-18T10:25:22.540Z,18.81
2022-08-18T10:27:58.185Z,18.93
2022-08-18T10:30:57.257Z,19.06
2022-08-18T10:34:17.178Z,19.13
2022-08-18T10:36:58.929Z,19.16
2022-08-18T10:39:53.073Z,19.20
2022-08-18T10:42:30.878Z,19.22
2022-08-18T10:45:10.124Z,19.29
2022-08-18T10:47:37.831Z,19.36
2022-08-18T10:50:18.408Z,19.45
2022-08-18T10:53:24.361Z,19.60
2022-08-18T10:59:18.018Z,19.66
2022-08-18T11:01:46.084Z,19.72
2022-08-18T11:04:33.579Z,19.66
2022-08-18T11:07:11.650Z,19.75
2022-08-18T11:09:41.899Z,19.79
2022-08-18T11:12:12.675Z,19.79
2022-08-18T11:14:50.166Z,19.82
2022-08-18T11:17:30.344Z,19.80
2022-08-18T11:19:58.797Z,19.80
2022-08-18T11:22:31.630Z,19.78
2022-08-18T11:25:37.303Z,19.77
2022-08-18T11:28:30.154Z,19.85
2022-08-18T11:30:59.484Z,19.91
2022-08-18T11:33:27.816Z,20.00
2022-08-18T11:36:01.397Z,20.03
2022-08-18T11:38:29.708Z,20.12
2022-08-18T11:41:14.326Z,20.21
2022-08-18T11:43:46.782Z,20.29
2022-08-18T11:46:38.487Z,20.35
2022-08-18T11:49:26.494Z,20.40
2022-08-18T11:52:15.464Z,20.50
2022-08-18T11:54:54.086Z,20.51
2022-08-18T11:57:46.373Z,20.51
2022-08-18T12:00:43.035Z,20.48
2022-08-18T12:03:19.442Z,20.54
2022-08-18T12:05:56.628Z,20.56
2022-08-18T12:08:57.232Z,20.59
2022-08-18T12:11:41.354Z,20.61
2022-08-18T12:14:32.667Z,20.73
2022-08-18T12:17:02.181Z,20.86
2022-08-18T12:19:31.315Z,20.91
2022-08-18T12:22:03.881Z,20.81
2022-08-18T12:24:39.441Z,20.74
2022-08-18T12:27:20.705Z,20.76
2022-08-18T12:29:49.383Z,20.86
2022-08-18T12:32:17.969Z,20.91
2022-08-18T12:35:08.981Z,20.92
2022-08-18T12:40:26.575Z,20.85
2022-08-18T12:42:55.607Z,20.96
2022-08-18T12:45:24.768Z,21.08
2022-08-18T12:47:52.696Z,21.09
2022-08-18T12:50:19.902Z,21.17
2022-08-18T12:52:47.001Z,21.23
2022-08-18T12:55:21.570Z,21.22
2022-08-18T12:57:52.538Z,21.23
2022-08-18T13:00:28.827Z,21.19
2022-08-18T13:02:57.436Z,21.20
2022-08-18T13:05:27.693Z,21.22
2022-08-18T13:08:04.564Z,21.22
2022-08-18T13:10:43.079Z,21.28
2022-08-18T13:13:14.689Z,21.25
2022-08-18T13:15:44.307Z,21.29
2022-08-18T13:18:27.393Z,21.21
2022-08-18T13:20:58.507Z,21.24
2022-08-18T13:23:27.256Z,21.25
2022-08-18T13:25:59.388Z,21.22
2022-08-18T13:28:33.557Z,21.21
2022-08-18T13:31:05.461Z,21.18
2022-08-18T13:33:35.147Z,21.20
2022-08-18T13:36:20.520Z,21.24
2022-08-18T13:38:54.701Z,21.29
2022-08-18T13:43:52.365Z,21.20
2022-08-18T13:46:30.035Z,21.27
2022-08-18T13:49:02.956Z,21.30
2022-08-18T13:51:29.926Z,21.32
2022-08-18T13:54:17.852Z,21.41
2022-08-18T13:56:51.312Z,21.37
2022-08-18T13:59:22.435Z,21.42
2022-08-18T14:01:53.140Z,21.44
2022-08-18T14:04:22.469Z,21.50
2022-08-18T14:06:57.000Z,21.52
2022-08-18T14:09:36.507Z,21.50
2022-08-18T14:12:22.544Z,21.45
2022-08-18T14:14:55.103Z,21.43
2022-08-18T14:17:24.344Z,21.46
2022-08-18T14:20:14.841Z,21.42
2022-08-18T14:23:01.310Z,21.41
2022-08-18T14:25:46.857Z,21.38
2022-08-18T14:28:18.732Z,21.31
2022-08-18T14:30:54.409Z,21.25
2022-08-18T14:33:34.501Z,21.27
2022-08-18T14:36:13.403Z,21.24
2022-08-18T14:38:40.856Z,21.24
2022-08-18T14:41:10.661Z,21.13
2022-08-18T14:44:10.301Z,21.04
2022-08-18T14:46:30.212Z,21.08
2022-08-18T14:48:59.477Z,21.07
2022-08-18T14:51:27.288Z,21.02
2022-08-18T14:53:54.481Z,20.98
2022-08-18T14:56:22.595Z,20.94
2022-08-18T14:58:57.239Z,20.85
2022-08-18T15:01:24.741Z,20.87
2022-08-18T15:03:55.054Z,20.89
2022-08-18T15:06:23.055Z,20.95
2022-08-18T15:08:54.775Z,20.95
2022-08-18T15:11:24.382Z,20.96
2022-08-18T15:13:51.677Z,21.00
2022-08-18T15:16:31.592Z,21.06
2022-08-18T15:18:59.172Z,21.11
2022-08-18T15:21:45.157Z,21.18
2022-08-18T15:24:31.080Z,21.16
2022-08-18T15:27:05.699Z,21.03
2022-08-18T15:29:33.416Z,20.79
2022-08-18T15:32:02.158Z,20.80
2022-08-18T15:34:33.382Z,20.81
2022-08-18T15:37:15.356Z,20.79
2022-08-18T15:39:42.161Z,20.81
2022-08-18T15:42:11.415Z,20.79
2022-08-18T15:44:38.438Z,20.77
2022-08-18T15:47:05.453Z,20.66
2022-08-18T15:49:36.417Z,20.63
2022-08-18T15:52:03.412Z,20.59
2022-08-18T15:54:30.293Z,20.58
2022-08-18T15:56:58.888Z,20.56
2022-08-18T15:59:34.245Z,20.55
2022-08-18T16:02:11.539Z,20.53
2022-08-18T16:04:43.159Z,20.50
2022-08-18T16:07:12.166Z,20.44
2022-08-18T16:09:38.987Z,20.45
2022-08-18T16:12:08.757Z,20.40
2022-08-18T16:14:41.441Z,20.40
2022-08-18T16:17:09.473Z,20.31
2022-08-18T16:19:45.157Z,20.24
2022-08-18T16:22:13.421Z,20.22
2022-08-18T16:24:40.338Z,20.16
2022-08-18T16:27:08.983Z,20.15
2022-08-18T16:29:36.770Z,20.10
2022-08-18T16:32:03.774Z,20.02
2022-08-18T16:34:32.336Z,19.95
2022-08-18T16:36:59.344Z,19.93
2022-08-18T16:39:26.196Z,19.90
2022-08-18T16:41:53.032Z,19.87
2022-08-18T16:44:19.827Z,19.79
2022-08-18T16:46:46.825Z,19.81
2022-08-18T16:49:13.533Z,19.74
2022-08-18T16:51:41.164Z,19.75
2022-08-18T16:54:07.812Z,19.72
2022-08-18T16:56:36.068Z,19.64
2022-08-18T16:59:23.258Z,19.53
2022-08-18T17:02:10.793Z,19.44
2022-08-18T17:04:37.640Z,19.34
2022-08-18T17:07:05.770Z,19.24
2022-08-18T17:09:33.948Z,19.21
2022-08-18T17:12:01.328Z,19.19
2022-08-18T17:14:30.315Z,19.20
2022-08-18T17:16:58.620Z,19.19
2022-08-18T17:19:29.313Z,19.18
2022-08-18T17:21:56.557Z,19.16
2022-08-18T17:24:32.151Z,19.12
2022-08-18T17:27:26.951Z,19.01
2022-08-18T17:30:04.181Z,18.94
2022-08-18T17:33:00.573Z,18.88
2022-08-18T17:35:35.177Z,18.91
2022-08-18T17:38:15.452Z,18.90
2022-08-18T17:40:51.472Z,18.93
2022-08-18T17:43:24.435Z,18.92
2022-08-18T17:45:59.035Z,18.89
2022-08-18T17:48:32.443Z,18.85
2022-08-18T17:51:21.987Z,18.87
2022-08-18T17:53:48.775Z,18.82
2022-08-18T17:56:15.600Z,18.79
2022-08-18T17:58:56.685Z,18.78
2022-08-18T18:01:27.036Z,18.79
2022-08-18T18:03:54.781Z,18.71
2022-08-18T18:06:33.954Z,18.64
2022-08-18T18:09:33.536Z,18.59
2022-08-18T18:12:21.624Z,18.52
2022-08-18T18:14:48.451Z,18.50
2022-08-18T18:17:19.320Z,18.50
2022-08-18T18:19:49.312Z,18.56
2022-08-18T18:22:25.970Z,18.55
2022-08-18T18:24:54.821Z,18.53
2022-08-18T18:27:28.676Z,18.47
2022-08-18T18:30:02.808Z,18.41
2022-08-18T18:32:32.745Z,18.36
2022-08-18T18:35:27.580Z,18.29
2022-08-18T18:37:59.448Z,18.20
2022-08-18T18:40:26.293Z,18.25
2022-08-18T18:42:54.057Z,18.33
2022-08-18T18:45:31.095Z,18.28
2022-08-18T18:48:45.036Z,18.34
2022-08-18T18:51:10.817Z,18.37
2022-08-18T18:54:09.867Z,18.28
2022-08-18T18:56:45.887Z,17.91
2022-08-18T18:59:49.490Z,17.79
2022-08-18T19:02:45.449Z,17.81
2022-08-18T19:05:27.309Z,17.68
2022-08-18T19:08:08.190Z,17.78
2022-08-18T19:10:56.207Z,17.70
2022-08-18T19:13:54.319Z,17.72
2022-08-18T19:16:38.594Z,17.74
2022-08-18T19:19:37.161Z,17.63
2022-08-18T19:22:35.062Z,17.76
2022-08-18T19:25:15.912Z,17.74
2022-08-18T19:28:18.303Z,17.67
2022-08-18T19:30:49.180Z,17.81
2022-08-18T19:33:25.963Z,17.92
2022-08-18T19:35:58.712Z,17.85
2022-08-18T19:38:35.602Z,17.69
2022-08-18T19:41:04.140Z,17.86
2022-08-18T19:44:31.731Z,17.96
2022-08-18T19:47:09.133Z,17.70
2022-08-18T19:49:55.970Z,17.78
2022-08-18T19:52:46.404Z,17.89
2022-08-18T19:55:33.485Z,17.92
2022-08-18T19:58:18.918Z,17.77
2022-08-18T20:01:05.013Z,17.69
2022-08-18T20:03:47.386Z,17.80
2022-08-18T20:06:35.450Z,17.84
2022-08-18T20:09:19.464Z,17.84
2022-08-18T20:12:21.589Z,17.65
2022-08-18T20:15:08.592Z,17.71
2022-08-18T20:17:57.736Z,17.74
2022-08-18T20:20:41.267Z,17.72
2022-08-18T20:23:34.252Z,17.53
2022-08-18T20:26:01.215Z,17.58
2022-08-18T20:28:40.021Z,17.63
2022-08-18T20:31:16.725Z,17.61
2022-08-18T20:34:13.996Z,17.67
2022-08-18T20:36:43.719Z,17.72
2022-08-18T20:39:46.268Z,17.55
2022-08-18T20:42:23.068Z,17.39
2022-08-18T20:44:52.392Z,17.52
2022-08-18T20:47:37.824Z,17.60
2022-08-18T20:50:33.965Z,17.59
2022-08-18T20:53:21.712Z,17.55
2022-08-18T20:55:59.756Z,17.36
2022-08-18T20:58:33.370Z,17.38
2022-08-18T21:01:01.895Z,17.45
2022-08-18T21:03:45.565Z,17.46
2022-08-18T21:06:15.773Z,17.41
2022-08-18T21:09:00.184Z,17.44
2022-08-18T21:11:40.740Z,17.31
2022-08-18T21:14:07.939Z,17.30
2022-08-18T21:16:54.973Z,17.38
2022-08-18T21:19:28.026Z,17.46
2022-08-18T21:22:00.938Z,17.48
2022-08-18T21:24:33.279Z,17.53
2022-08-18T21:27:10.712Z,17.48
2022-08-18T21:29:46.928Z,17.36
2022-08-18T21:32:22.945Z,17.32
2022-08-18T21:34:50.137Z,17.42
2022-08-18T21:37:19.145Z,17.45
2022-08-18T21:39:51.072Z,17.45
2022-08-18T21:42:48.923Z,17.46
2022-08-18T21:45:25.700Z,17.51
2022-08-18T21:48:04.738Z,17.51
2022-08-18T21:50:35.075Z,17.44
2022-08-18T21:53:18.569Z,17.31
2022-08-18T21:55:49.214Z,17.40
2022-08-18T21:58:17.815Z,17.44
2022-08-18T22:01:05.615Z,17.48
2022-08-18T22:03:34.662Z,17.46
2022-08-18T22:06:27.046Z,17.45
2022-08-18T22:09:22.466Z,17.45
2022-08-18T22:12:08.449Z,17.42
2022-08-18T22:14:55.285Z,17.24
2022-08-18T22:17:32.020Z,17.30
2022-08-18T22:20:45.611Z,17.32
2022-08-18T22:23:31.207Z,17.36
2022-08-18T22:26:22.088Z,17.35
2022-08-18T22:28:58.162Z,17.35
2022-08-18T22:31:29.324Z,17.37
2022-08-18T22:33:59.819Z,17.44
2022-08-18T22:36:29.685Z,17.48
2022-08-18T22:38:56.633Z,17.49
2022-08-18T22:41:23.958Z,17.45
2022-08-18T22:43:54.655Z,17.24
2022-08-18T22:46:24.252Z,17.22
2022-08-18T22:48:52.514Z,17.23
2022-08-18T22:51:24.235Z,17.27
2022-08-18T22:53:51.290Z,17.34
2022-08-18T22:56:22.758Z,17.32
2022-08-18T22:59:05.916Z,17.35
2022-08-18T23:01:45.677Z,17.36
2022-08-18T23:04:20.336Z,17.38
2022-08-18T23:06:52.294Z,17.41
2022-08-18T23:09:29.807Z,17.40
2022-08-18T23:11:59.942Z,17.37
2022-08-18T23:14:27.064Z,17.36
2022-08-18T23:16:57.272Z,17.25
2022-08-18T23:19:24.008Z,17.08
2022-08-18T23:21:52.080Z,17.13
2022-08-18T23:24:20.370Z,17.21
2022-08-18T23:26:47.634Z,17.26
2022-08-18T23:29:14.922Z,17.31
2022-08-18T23:31:44.583Z,17.30
2022-08-18T23:34:13.937Z,17.33
2022-08-18T23:36:45.251Z,17.33
2022-08-18T23:39:13.771Z,17.35
2022-08-18T23:41:40.757Z,17.36
2022-08-18T23:44:07.707Z,17.34
2022-08-18T23:46:35.187Z,17.32
2022-08-18T23:49:04.728Z,17.31
2022-08-18T23:51:44.658Z,17.30
2022-08-18T23:54:17.183Z,17.24
2022-08-18T23:56:45.053Z,17.31
2022-08-18T23:59:13.375Z,17.18
